sensor_id;sensor_type;location;lat;lon;timestamp;temperature;humidity
25877;DHT22;13692;47.480;19.216;2023-04-07T00:02:06;5.00;99.90
25877;DHT22;13692;47.480;19.216;2023-04-07T00:04:33;5.00;99.90
25877;DHT22;13692;47.480;19.216;2023-04-07T00:07:00;5.00;99.90
25877;DHT22;13692;47.480;19.216;2023-04-07T00:09:27;5.00;99.90
25877;DHT22;13692;47.480;19.216;2023-04-07T00:11:54;5.00;99.90
25877;DHT22;13692;47.480;19.216;2023-04-07T00:14:21;5.00;99.90
25877;DHT22;13692;47.480;19.216;2023-04-07T00:16:48;5.00;99.90
25877;DHT22;13692;47.480;19.216;2023-04-07T00:19:15;5.00;99.90
25877;DHT22;13692;47.480;19.216;2023-04-07T00:21:42;5.00;99.90
25877;DHT22;13692;47.480;19.216;2023-04-07T00:24:09;5.00;99.90
25877;DHT22;13692;47.480;19.216;2023-04-07T00:26:37;5.10;99.90
25877;DHT22;13692;47.480;19.216;2023-04-07T00:29:04;5.10;99.90
25877;DHT22;13692;47.480;19.216;2023-04-07T00:31:31;5.00;99.90
25877;DHT22;13692;47.480;19.216;2023-04-07T00:33:58;5.10;99.90
25877;DHT22;13692;47.480;19.216;2023-04-07T00:36:25;5.00;99.90
25877;DHT22;13692;47.480;19.216;2023-04-07T00:38:52;5.10;99.90
25877;DHT22;13692;47.480;19.216;2023-04-07T00:41:19;5.10;99.90
25877;DHT22;13692;47.480;19.216;2023-04-07T00:43:46;5.10;99.90
25877;DHT22;13692;47.480;19.216;2023-04-07T00:46:13;5.10;99.90
25877;DHT22;13692;47.480;19.216;2023-04-07T00:48:40;5.10;99.90
25877;DHT22;13692;47.480;19.216;2023-04-07T00:51:07;5.10;99.90
25877;DHT22;13692;47.480;19.216;2023-04-07T00:53:34;5.20;99.90
25877;DHT22;13692;47.480;19.216;2023-04-07T00:56:01;5.10;99.90
25877;DHT22;13692;47.480;19.216;2023-04-07T00:58:28;5.20;99.90
25877;DHT22;13692;47.480;19.216;2023-04-07T01:01:06;5.20;99.90
25877;DHT22;13692;47.480;19.216;2023-04-07T01:03:58;5.20;99.90
25877;DHT22;13692;47.480;19.216;2023-04-07T01:06:30;5.20;99.90
25877;DHT22;13692;47.480;19.216;2023-04-07T01:11:43;5.20;99.90
25877;DHT22;13692;47.480;19.216;2023-04-07T01:14:15;5.20;99.90
25877;DHT22;13692;47.480;19.216;2023-04-07T01:16:51;5.20;99.90
25877;DHT22;13692;47.480;19.216;2023-04-07T01:21:52;5.20;99.90
25877;DHT22;13692;47.480;19.216;2023-04-07T01:24:33;5.20;99.90
25877;DHT22;13692;47.480;19.216;2023-04-07T01:27:20;5.10;99.90
25877;DHT22;13692;47.480;19.216;2023-04-07T01:29:49;5.00;99.90
25877;DHT22;13692;47.480;19.216;2023-04-07T01:32:18;5.00;99.90
25877;DHT22;13692;47.480;19.216;2023-04-07T01:34:51;5.00;99.90
25877;DHT22;13692;47.480;19.216;2023-04-07T01:37:19;5.00;99.90
25877;DHT22;13692;47.480;19.216;2023-04-07T01:39:47;5.00;99.90
25877;DHT22;13692;47.480;19.216;2023-04-07T01:42:14;5.00;99.90
25877;DHT22;13692;47.480;19.216;2023-04-07T01:44:42;5.00;99.90
25877;DHT22;13692;47.480;19.216;2023-04-07T01:47:10;5.00;99.90
25877;DHT22;13692;47.480;19.216;2023-04-07T01:49:39;4.90;99.90
25877;DHT22;13692;47.480;19.216;2023-04-07T01:52:06;4.90;99.90
25877;DHT22;13692;47.480;19.216;2023-04-07T01:54:33;4.90;99.90
25877;DHT22;13692;47.480;19.216;2023-04-07T01:57:01;4.90;99.90
25877;DHT22;13692;47.480;19.216;2023-04-07T01:59:29;5.00;99.90
25877;DHT22;13692;47.480;19.216;2023-04-07T02:01:56;4.90;99.90
25877;DHT22;13692;47.480;19.216;2023-04-07T02:04:34;4.90;99.90
25877;DHT22;13692;47.480;19.216;2023-04-07T02:07:08;4.80;99.90
25877;DHT22;13692;47.480;19.216;2023-04-07T02:09:38;4.70;99.90
25877;DHT22;13692;47.480;19.216;2023-04-07T02:12:08;4.70;99.90
25877;DHT22;13692;47.480;19.216;2023-04-07T02:14:37;4.70;99.90
25877;DHT22;13692;47.480;19.216;2023-04-07T02:17:05;4.70;99.90
25877;DHT22;13692;47.480;19.216;2023-04-07T02:19:32;4.70;99.90
25877;DHT22;13692;47.480;19.216;2023-04-07T02:22:05;4.60;99.90
25877;DHT22;13692;47.480;19.216;2023-04-07T02:24:32;4.60;99.90
25877;DHT22;13692;47.480;19.216;2023-04-07T02:26:59;4.60;99.90
25877;DHT22;13692;47.480;19.216;2023-04-07T02:29:29;4.70;99.90
25877;DHT22;13692;47.480;19.216;2023-04-07T02:31:56;4.70;99.90
25877;DHT22;13692;47.480;19.216;2023-04-07T02:34:23;4.70;99.90
25877;DHT22;13692;47.480;19.216;2023-04-07T02:36:49;4.60;99.90
25877;DHT22;13692;47.480;19.216;2023-04-07T02:39:17;4.60;99.90
25877;DHT22;13692;47.480;19.216;2023-04-07T02:41:44;4.60;99.90
25877;DHT22;13692;47.480;19.216;2023-04-07T02:44:10;4.60;99.90
25877;DHT22;13692;47.480;19.216;2023-04-07T02:46:37;4.60;99.90
25877;DHT22;13692;47.480;19.216;2023-04-07T02:49:04;4.70;99.90
25877;DHT22;13692;47.480;19.216;2023-04-07T02:51:31;4.60;99.90
25877;DHT22;13692;47.480;19.216;2023-04-07T02:53:58;4.60;99.90
25877;DHT22;13692;47.480;19.216;2023-04-07T02:56:25;4.60;99.90
25877;DHT22;13692;47.480;19.216;2023-04-07T02:58:52;4.60;99.90
25877;DHT22;13692;47.480;19.216;2023-04-07T03:01:19;4.70;99.90
25877;DHT22;13692;47.480;19.216;2023-04-07T03:03:46;4.70;99.90
25877;DHT22;13692;47.480;19.216;2023-04-07T03:06:13;4.70;99.90
25877;DHT22;13692;47.480;19.216;2023-04-07T03:08:40;4.70;99.90
25877;DHT22;13692;47.480;19.216;2023-04-07T03:11:07;4.70;99.90
25877;DHT22;13692;47.480;19.216;2023-04-07T03:13:34;4.60;99.90
25877;DHT22;13692;47.480;19.216;2023-04-07T03:16:01;4.70;99.90
25877;DHT22;13692;47.480;19.216;2023-04-07T03:18:29;4.70;99.90
25877;DHT22;13692;47.480;19.216;2023-04-07T03:20:56;4.70;99.90
25877;DHT22;13692;47.480;19.216;2023-04-07T03:23:23;4.70;99.90
25877;DHT22;13692;47.480;19.216;2023-04-07T03:25:49;4.70;99.90
25877;DHT22;13692;47.480;19.216;2023-04-07T03:28:16;4.70;99.90
25877;DHT22;13692;47.480;19.216;2023-04-07T03:30:43;4.70;99.90
25877;DHT22;13692;47.480;19.216;2023-04-07T03:33:10;4.60;99.90
25877;DHT22;13692;47.480;19.216;2023-04-07T03:35:38;4.70;99.90
25877;DHT22;13692;47.480;19.216;2023-04-07T03:38:04;4.70;99.90
25877;DHT22;13692;47.480;19.216;2023-04-07T03:40:31;4.60;99.90
25877;DHT22;13692;47.480;19.216;2023-04-07T03:42:59;4.60;99.90
25877;DHT22;13692;47.480;19.216;2023-04-07T03:45:26;4.60;99.90
25877;DHT22;13692;47.480;19.216;2023-04-07T03:47:53;4.60;99.90
25877;DHT22;13692;47.480;19.216;2023-04-07T03:50:21;4.70;99.90
25877;DHT22;13692;47.480;19.216;2023-04-07T03:52:48;4.70;99.90
25877;DHT22;13692;47.480;19.216;2023-04-07T03:55:15;4.70;99.90
25877;DHT22;13692;47.480;19.216;2023-04-07T03:57:42;4.60;99.90
25877;DHT22;13692;47.480;19.216;2023-04-07T04:00:09;4.60;99.90
25877;DHT22;13692;47.480;19.216;2023-04-07T04:02:36;4.60;99.90
25877;DHT22;13692;47.480;19.216;2023-04-07T04:05:03;4.60;99.90
25877;DHT22;13692;47.480;19.216;2023-04-07T04:07:30;4.70;99.90
25877;DHT22;13692;47.480;19.216;2023-04-07T04:09:59;4.70;99.90
25877;DHT22;13692;47.480;19.216;2023-04-07T04:12:26;4.70;99.90
25877;DHT22;13692;47.480;19.216;2023-04-07T04:14:53;4.70;99.90
25877;DHT22;13692;47.480;19.216;2023-04-07T04:17:20;4.70;99.90
25877;DHT22;13692;47.480;19.216;2023-04-07T04:19:47;4.70;99.90
25877;DHT22;13692;47.480;19.216;2023-04-07T04:22:13;4.70;99.90
25877;DHT22;13692;47.480;19.216;2023-04-07T04:24:40;4.80;99.90
25877;DHT22;13692;47.480;19.216;2023-04-07T04:27:07;4.90;99.90
25877;DHT22;13692;47.480;19.216;2023-04-07T04:29:34;5.00;99.90
25877;DHT22;13692;47.480;19.216;2023-04-07T04:32:01;4.90;99.90
25877;DHT22;13692;47.480;19.216;2023-04-07T04:34:28;5.00;99.90
25877;DHT22;13692;47.480;19.216;2023-04-07T04:36:55;5.00;99.90
25877;DHT22;13692;47.480;19.216;2023-04-07T04:39:22;5.00;99.90
25877;DHT22;13692;47.480;19.216;2023-04-07T04:41:49;4.90;99.90
25877;DHT22;13692;47.480;19.216;2023-04-07T04:44:16;4.80;99.90
25877;DHT22;13692;47.480;19.216;2023-04-07T04:46:42;4.80;99.90
25877;DHT22;13692;47.480;19.216;2023-04-07T04:49:09;4.90;99.90
25877;DHT22;13692;47.480;19.216;2023-04-07T04:51:37;4.90;99.90
25877;DHT22;13692;47.480;19.216;2023-04-07T04:54:04;4.90;99.90
25877;DHT22;13692;47.480;19.216;2023-04-07T04:56:32;4.90;99.90
25877;DHT22;13692;47.480;19.216;2023-04-07T04:58:59;4.90;99.90
25877;DHT22;13692;47.480;19.216;2023-04-07T05:01:26;4.90;99.90
25877;DHT22;13692;47.480;19.216;2023-04-07T05:03:53;4.90;99.90
25877;DHT22;13692;47.480;19.216;2023-04-07T05:06:20;5.00;99.90
25877;DHT22;13692;47.480;19.216;2023-04-07T05:08:47;4.90;99.90
25877;DHT22;13692;47.480;19.216;2023-04-07T05:11:15;5.00;99.90
25877;DHT22;13692;47.480;19.216;2023-04-07T05:13:42;5.00;99.90
25877;DHT22;13692;47.480;19.216;2023-04-07T05:16:09;5.10;99.90
25877;DHT22;13692;47.480;19.216;2023-04-07T05:18:36;5.10;99.90
25877;DHT22;13692;47.480;19.216;2023-04-07T05:21:03;5.00;99.90
25877;DHT22;13692;47.480;19.216;2023-04-07T05:23:30;5.10;99.90
25877;DHT22;13692;47.480;19.216;2023-04-07T05:25:57;5.20;99.90
25877;DHT22;13692;47.480;19.216;2023-04-07T05:28:24;5.20;99.90
25877;DHT22;13692;47.480;19.216;2023-04-07T05:30:51;5.20;99.90
25877;DHT22;13692;47.480;19.216;2023-04-07T05:33:18;5.30;99.90
25877;DHT22;13692;47.480;19.216;2023-04-07T05:35:45;5.40;99.90
25877;DHT22;13692;47.480;19.216;2023-04-07T05:38:12;5.40;99.90
25877;DHT22;13692;47.480;19.216;2023-04-07T05:40:39;5.40;99.90
25877;DHT22;13692;47.480;19.216;2023-04-07T05:43:06;5.30;99.90
25877;DHT22;13692;47.480;19.216;2023-04-07T05:45:33;5.30;99.90
25877;DHT22;13692;47.480;19.216;2023-04-07T05:48:00;5.20;99.90
25877;DHT22;13692;47.480;19.216;2023-04-07T05:50:27;5.20;99.90
25877;DHT22;13692;47.480;19.216;2023-04-07T05:52:54;5.10;99.90
25877;DHT22;13692;47.480;19.216;2023-04-07T05:55:21;5.10;99.90
25877;DHT22;13692;47.480;19.216;2023-04-07T05:57:48;5.20;99.90
25877;DHT22;13692;47.480;19.216;2023-04-07T06:00:15;5.30;99.90
25877;DHT22;13692;47.480;19.216;2023-04-07T06:02:42;5.40;99.90
25877;DHT22;13692;47.480;19.216;2023-04-07T06:05:10;5.40;99.90
25877;DHT22;13692;47.480;19.216;2023-04-07T06:07:37;5.50;99.90
25877;DHT22;13692;47.480;19.216;2023-04-07T06:10:04;5.50;99.90
25877;DHT22;13692;47.480;19.216;2023-04-07T06:12:31;5.50;99.90
25877;DHT22;13692;47.480;19.216;2023-04-07T06:14:58;5.40;99.90
25877;DHT22;13692;47.480;19.216;2023-04-07T06:17:25;5.30;99.90
25877;DHT22;13692;47.480;19.216;2023-04-07T06:19:52;5.40;99.90
25877;DHT22;13692;47.480;19.216;2023-04-07T06:22:19;5.50;99.90
25877;DHT22;13692;47.480;19.216;2023-04-07T06:24:46;5.40;99.90
25877;DHT22;13692;47.480;19.216;2023-04-07T06:27:13;5.40;99.90
25877;DHT22;13692;47.480;19.216;2023-04-07T06:29:40;5.30;99.90
25877;DHT22;13692;47.480;19.216;2023-04-07T06:32:07;5.30;99.90
25877;DHT22;13692;47.480;19.216;2023-04-07T06:34:34;5.30;99.90
25877;DHT22;13692;47.480;19.216;2023-04-07T06:37:01;5.20;99.90
25877;DHT22;13692;47.480;19.216;2023-04-07T06:39:29;5.30;99.90
25877;DHT22;13692;47.480;19.216;2023-04-07T06:41:56;5.30;99.90
25877;DHT22;13692;47.480;19.216;2023-04-07T06:44:23;5.30;99.90
25877;DHT22;13692;47.480;19.216;2023-04-07T06:46:50;5.30;99.90
25877;DHT22;13692;47.480;19.216;2023-04-07T06:49:19;5.50;99.90
25877;DHT22;13692;47.480;19.216;2023-04-07T06:51:46;5.60;99.90
25877;DHT22;13692;47.480;19.216;2023-04-07T06:54:13;5.70;99.90
25877;DHT22;13692;47.480;19.216;2023-04-07T06:56:41;5.80;99.90
25877;DHT22;13692;47.480;19.216;2023-04-07T06:59:08;5.80;99.90
25877;DHT22;13692;47.480;19.216;2023-04-07T07:01:35;6.00;99.90
25877;DHT22;13692;47.480;19.216;2023-04-07T07:04:03;6.00;99.90
25877;DHT22;13692;47.480;19.216;2023-04-07T07:06:33;6.00;99.90
25877;DHT22;13692;47.480;19.216;2023-04-07T07:09:00;6.10;99.90
25877;DHT22;13692;47.480;19.216;2023-04-07T07:11:28;6.00;99.90
25877;DHT22;13692;47.480;19.216;2023-04-07T07:13:56;5.90;99.90
25877;DHT22;13692;47.480;19.216;2023-04-07T07:16:23;5.90;99.90
25877;DHT22;13692;47.480;19.216;2023-04-07T07:18:50;5.90;99.90
25877;DHT22;13692;47.480;19.216;2023-04-07T07:21:17;5.90;99.90
25877;DHT22;13692;47.480;19.216;2023-04-07T07:23:44;6.10;99.90
25877;DHT22;13692;47.480;19.216;2023-04-07T07:26:12;6.00;99.90
25877;DHT22;13692;47.480;19.216;2023-04-07T07:28:39;5.90;99.90
25877;DHT22;13692;47.480;19.216;2023-04-07T07:31:12;5.90;99.90
25877;DHT22;13692;47.480;19.216;2023-04-07T07:33:41;5.90;99.90
25877;DHT22;13692;47.480;19.216;2023-04-07T07:36:09;6.10;99.90
25877;DHT22;13692;47.480;19.216;2023-04-07T07:38:37;6.20;99.90
25877;DHT22;13692;47.480;19.216;2023-04-07T07:41:05;6.40;99.90
25877;DHT22;13692;47.480;19.216;2023-04-07T07:43:33;6.40;99.90
25877;DHT22;13692;47.480;19.216;2023-04-07T07:45:59;6.40;99.90
25877;DHT22;13692;47.480;19.216;2023-04-07T07:48:27;6.50;99.90
25877;DHT22;13692;47.480;19.216;2023-04-07T07:50:54;6.40;99.90
25877;DHT22;13692;47.480;19.216;2023-04-07T07:53:22;6.50;99.90
25877;DHT22;13692;47.480;19.216;2023-04-07T07:55:49;6.60;99.90
25877;DHT22;13692;47.480;19.216;2023-04-07T07:58:16;6.70;99.90
25877;DHT22;13692;47.480;19.216;2023-04-07T08:00:43;6.70;99.90
25877;DHT22;13692;47.480;19.216;2023-04-07T08:03:10;6.50;99.90
25877;DHT22;13692;47.480;19.216;2023-04-07T08:05:38;6.50;99.90
25877;DHT22;13692;47.480;19.216;2023-04-07T08:08:06;6.50;99.90
25877;DHT22;13692;47.480;19.216;2023-04-07T08:10:33;6.60;99.90
25877;DHT22;13692;47.480;19.216;2023-04-07T08:13:00;6.60;99.90
25877;DHT22;13692;47.480;19.216;2023-04-07T08:15:27;6.70;99.90
25877;DHT22;13692;47.480;19.216;2023-04-07T08:17:54;6.70;99.90
25877;DHT22;13692;47.480;19.216;2023-04-07T08:20:22;6.60;99.90
25877;DHT22;13692;47.480;19.216;2023-04-07T08:22:49;6.60;99.90
25877;DHT22;13692;47.480;19.216;2023-04-07T08:25:16;6.60;99.90
25877;DHT22;13692;47.480;19.216;2023-04-07T08:27:43;6.60;99.90
25877;DHT22;13692;47.480;19.216;2023-04-07T08:30:10;6.60;99.90
25877;DHT22;13692;47.480;19.216;2023-04-07T08:32:42;6.50;99.90
25877;DHT22;13692;47.480;19.216;2023-04-07T08:35:10;6.60;99.90
25877;DHT22;13692;47.480;19.216;2023-04-07T08:37:38;6.50;99.90
25877;DHT22;13692;47.480;19.216;2023-04-07T08:40:06;6.60;99.90
25877;DHT22;13692;47.480;19.216;2023-04-07T08:42:34;6.60;99.90
25877;DHT22;13692;47.480;19.216;2023-04-07T08:45:03;6.60;99.90
25877;DHT22;13692;47.480;19.216;2023-04-07T08:47:33;6.60;99.90
25877;DHT22;13692;47.480;19.216;2023-04-07T08:50:02;6.70;99.90
25877;DHT22;13692;47.480;19.216;2023-04-07T08:52:44;6.70;99.90
25877;DHT22;13692;47.480;19.216;2023-04-07T08:55:14;6.80;99.90
25877;DHT22;13692;47.480;19.216;2023-04-07T08:57:42;7.00;99.90
25877;DHT22;13692;47.480;19.216;2023-04-07T09:00:09;7.00;99.90
25877;DHT22;13692;47.480;19.216;2023-04-07T09:02:39;7.00;99.90
25877;DHT22;13692;47.480;19.216;2023-04-07T09:05:07;7.00;99.90
25877;DHT22;13692;47.480;19.216;2023-04-07T09:07:36;7.00;99.90
25877;DHT22;13692;47.480;19.216;2023-04-07T09:10:04;7.10;99.90
25877;DHT22;13692;47.480;19.216;2023-04-07T09:12:31;7.20;99.90
25877;DHT22;13692;47.480;19.216;2023-04-07T09:14:59;7.20;99.90
25877;DHT22;13692;47.480;19.216;2023-04-07T09:17:27;7.20;99.90
25877;DHT22;13692;47.480;19.216;2023-04-07T09:19:56;7.20;99.90
25877;DHT22;13692;47.480;19.216;2023-04-07T09:22:40;7.20;99.90
25877;DHT22;13692;47.480;19.216;2023-04-07T09:28:00;7.30;99.90
25877;DHT22;13692;47.480;19.216;2023-04-07T09:30:32;7.40;99.90
25877;DHT22;13692;47.480;19.216;2023-04-07T09:33:00;7.20;99.90
25877;DHT22;13692;47.480;19.216;2023-04-07T09:35:27;7.00;99.90
25877;DHT22;13692;47.480;19.216;2023-04-07T09:38:05;7.00;99.90
25877;DHT22;13692;47.480;19.216;2023-04-07T09:40:33;7.00;99.90
25877;DHT22;13692;47.480;19.216;2023-04-07T09:43:02;7.00;99.90
25877;DHT22;13692;47.480;19.216;2023-04-07T09:45:30;7.10;99.90
25877;DHT22;13692;47.480;19.216;2023-04-07T09:48:08;7.20;99.90
25877;DHT22;13692;47.480;19.216;2023-04-07T09:50:43;7.30;99.90
25877;DHT22;13692;47.480;19.216;2023-04-07T09:53:15;7.40;99.90
25877;DHT22;13692;47.480;19.216;2023-04-07T09:55:43;7.40;99.90
25877;DHT22;13692;47.480;19.216;2023-04-07T09:58:13;7.40;99.90
25877;DHT22;13692;47.480;19.216;2023-04-07T10:00:42;7.50;99.90
25877;DHT22;13692;47.480;19.216;2023-04-07T10:03:10;7.60;99.90
25877;DHT22;13692;47.480;19.216;2023-04-07T10:05:38;7.40;99.90
25877;DHT22;13692;47.480;19.216;2023-04-07T10:08:05;7.40;99.90
25877;DHT22;13692;47.480;19.216;2023-04-07T10:10:34;7.40;99.90
25877;DHT22;13692;47.480;19.216;2023-04-07T10:13:04;7.60;99.90
25877;DHT22;13692;47.480;19.216;2023-04-07T10:15:32;7.60;99.90
25877;DHT22;13692;47.480;19.216;2023-04-07T10:17:59;7.60;99.90
25877;DHT22;13692;47.480;19.216;2023-04-07T10:20:28;7.60;99.90
25877;DHT22;13692;47.480;19.216;2023-04-07T10:23:03;7.50;99.90
25877;DHT22;13692;47.480;19.216;2023-04-07T10:25:33;7.50;99.90
25877;DHT22;13692;47.480;19.216;2023-04-07T10:28:06;7.50;99.90
25877;DHT22;13692;47.480;19.216;2023-04-07T10:30:34;7.50;99.90
25877;DHT22;13692;47.480;19.216;2023-04-07T10:33:02;7.50;99.90
25877;DHT22;13692;47.480;19.216;2023-04-07T10:36:06;7.50;99.90
25877;DHT22;13692;47.480;19.216;2023-04-07T10:38:33;7.30;99.90
25877;DHT22;13692;47.480;19.216;2023-04-07T10:42:03;7.10;99.90
25877;DHT22;13692;47.480;19.216;2023-04-07T10:44:46;7.20;99.90
25877;DHT22;13692;47.480;19.216;2023-04-07T10:47:15;7.30;99.90
25877;DHT22;13692;47.480;19.216;2023-04-07T10:50:18;7.40;99.90
25877;DHT22;13692;47.480;19.216;2023-04-07T10:52:47;7.60;99.90
25877;DHT22;13692;47.480;19.216;2023-04-07T10:55:29;7.60;99.90
25877;DHT22;13692;47.480;19.216;2023-04-07T10:58:25;7.50;99.90
25877;DHT22;13692;47.480;19.216;2023-04-07T11:03:41;7.50;99.90
25877;DHT22;13692;47.480;19.216;2023-04-07T11:06:17;7.60;99.90
25877;DHT22;13692;47.480;19.216;2023-04-07T11:08:46;7.80;99.90
25877;DHT22;13692;47.480;19.216;2023-04-07T11:11:35;8.10;99.90
25877;DHT22;13692;47.480;19.216;2023-04-07T11:14:05;8.20;99.90
25877;DHT22;13692;47.480;19.216;2023-04-07T11:16:37;8.10;99.90
25877;DHT22;13692;47.480;19.216;2023-04-07T11:19:05;8.00;99.90
25877;DHT22;13692;47.480;19.216;2023-04-07T11:21:32;7.90;99.90
25877;DHT22;13692;47.480;19.216;2023-04-07T11:23:59;7.80;99.90
25877;DHT22;13692;47.480;19.216;2023-04-07T11:26:26;7.90;99.90
25877;DHT22;13692;47.480;19.216;2023-04-07T11:28:54;7.90;99.90
25877;DHT22;13692;47.480;19.216;2023-04-07T11:31:26;7.90;99.90
25877;DHT22;13692;47.480;19.216;2023-04-07T11:33:54;7.90;99.90
25877;DHT22;13692;47.480;19.216;2023-04-07T11:36:31;7.90;99.90
25877;DHT22;13692;47.480;19.216;2023-04-07T11:38:59;8.00;99.90
25877;DHT22;13692;47.480;19.216;2023-04-07T11:41:28;8.10;99.90
25877;DHT22;13692;47.480;19.216;2023-04-07T11:44:07;8.20;99.90
25877;DHT22;13692;47.480;19.216;2023-04-07T11:46:35;8.30;99.90
25877;DHT22;13692;47.480;19.216;2023-04-07T11:49:13;8.00;99.90
25877;DHT22;13692;47.480;19.216;2023-04-07T11:51:43;8.00;99.90
25877;DHT22;13692;47.480;19.216;2023-04-07T11:54:10;8.00;99.90
25877;DHT22;13692;47.480;19.216;2023-04-07T11:56:42;8.10;99.90
25877;DHT22;13692;47.480;19.216;2023-04-07T11:59:19;8.30;99.90
25877;DHT22;13692;47.480;19.216;2023-04-07T12:01:46;8.40;99.90
25877;DHT22;13692;47.480;19.216;2023-04-07T12:04:14;8.50;99.90
25877;DHT22;13692;47.480;19.216;2023-04-07T12:06:46;8.30;99.90
25877;DHT22;13692;47.480;19.216;2023-04-07T12:09:32;8.20;99.90
25877;DHT22;13692;47.480;19.216;2023-04-07T12:12:03;8.20;99.90
25877;DHT22;13692;47.480;19.216;2023-04-07T12:14:32;8.20;99.90
25877;DHT22;13692;47.480;19.216;2023-04-07T12:16:59;8.20;99.90
25877;DHT22;13692;47.480;19.216;2023-04-07T12:19:30;8.30;99.90
25877;DHT22;13692;47.480;19.216;2023-04-07T12:21:59;8.50;99.90
25877;DHT22;13692;47.480;19.216;2023-04-07T12:24:26;8.50;99.90
25877;DHT22;13692;47.480;19.216;2023-04-07T12:26:54;8.70;99.90
25877;DHT22;13692;47.480;19.216;2023-04-07T12:29:21;8.80;99.90
25877;DHT22;13692;47.480;19.216;2023-04-07T12:31:48;8.90;99.90
25877;DHT22;13692;47.480;19.216;2023-04-07T12:34:17;9.00;99.90
25877;DHT22;13692;47.480;19.216;2023-04-07T12:36:44;9.00;99.90
25877;DHT22;13692;47.480;19.216;2023-04-07T12:39:11;9.10;99.90
25877;DHT22;13692;47.480;19.216;2023-04-07T12:41:38;9.00;99.90
25877;DHT22;13692;47.480;19.216;2023-04-07T12:44:05;9.00;99.90
25877;DHT22;13692;47.480;19.216;2023-04-07T12:46:32;9.00;99.90
25877;DHT22;13692;47.480;19.216;2023-04-07T12:48:59;9.00;99.90
25877;DHT22;13692;47.480;19.216;2023-04-07T12:51:27;9.10;99.90
25877;DHT22;13692;47.480;19.216;2023-04-07T12:53:54;9.10;99.90
25877;DHT22;13692;47.480;19.216;2023-04-07T12:56:21;9.10;99.90
25877;DHT22;13692;47.480;19.216;2023-04-07T12:58:50;9.20;99.90
25877;DHT22;13692;47.480;19.216;2023-04-07T13:01:17;8.90;99.90
25877;DHT22;13692;47.480;19.216;2023-04-07T13:03:45;8.80;99.90
25877;DHT22;13692;47.480;19.216;2023-04-07T13:06:12;8.70;99.90
25877;DHT22;13692;47.480;19.216;2023-04-07T13:08:39;8.60;99.90
25877;DHT22;13692;47.480;19.216;2023-04-07T13:11:06;8.60;99.90
25877;DHT22;13692;47.480;19.216;2023-04-07T13:13:33;8.60;99.90
25877;DHT22;13692;47.480;19.216;2023-04-07T13:16:00;8.60;99.90
25877;DHT22;13692;47.480;19.216;2023-04-07T13:18:27;8.50;99.90
25877;DHT22;13692;47.480;19.216;2023-04-07T13:20:54;8.40;99.90
25877;DHT22;13692;47.480;19.216;2023-04-07T13:23:41;8.50;99.90
25877;DHT22;13692;47.480;19.216;2023-04-07T13:26:10;8.50;99.90
25877;DHT22;13692;47.480;19.216;2023-04-07T13:28:37;8.40;99.90
25877;DHT22;13692;47.480;19.216;2023-04-07T13:31:04;8.40;99.90
25877;DHT22;13692;47.480;19.216;2023-04-07T13:33:33;8.30;99.90
25877;DHT22;13692;47.480;19.216;2023-04-07T13:36:00;8.20;99.90
25877;DHT22;13692;47.480;19.216;2023-04-07T13:38:27;8.10;99.90
25877;DHT22;13692;47.480;19.216;2023-04-07T13:40:54;8.10;99.90
25877;DHT22;13692;47.480;19.216;2023-04-07T13:43:21;8.10;99.90
25877;DHT22;13692;47.480;19.216;2023-04-07T13:45:48;8.00;99.90
25877;DHT22;13692;47.480;19.216;2023-04-07T13:48:15;8.00;99.90
25877;DHT22;13692;47.480;19.216;2023-04-07T13:50:42;7.90;99.90
25877;DHT22;13692;47.480;19.216;2023-04-07T13:53:09;7.90;99.90
25877;DHT22;13692;47.480;19.216;2023-04-07T13:55:36;7.90;99.90
25877;DHT22;13692;47.480;19.216;2023-04-07T13:58:03;8.00;99.90
25877;DHT22;13692;47.480;19.216;2023-04-07T14:00:29;7.80;99.90
25877;DHT22;13692;47.480;19.216;2023-04-07T14:02:56;7.90;99.90
25877;DHT22;13692;47.480;19.216;2023-04-07T14:05:24;7.80;99.90
25877;DHT22;13692;47.480;19.216;2023-04-07T14:07:51;7.90;99.90
25877;DHT22;13692;47.480;19.216;2023-04-07T14:10:18;7.90;99.90
25877;DHT22;13692;47.480;19.216;2023-04-07T14:12:45;7.90;99.90
25877;DHT22;13692;47.480;19.216;2023-04-07T14:15:12;8.00;99.90
25877;DHT22;13692;47.480;19.216;2023-04-07T14:17:39;8.10;99.90
25877;DHT22;13692;47.480;19.216;2023-04-07T14:20:06;8.00;99.90
25877;DHT22;13692;47.480;19.216;2023-04-07T14:22:34;8.00;99.90
25877;DHT22;13692;47.480;19.216;2023-04-07T14:25:01;7.90;99.90
25877;DHT22;13692;47.480;19.216;2023-04-07T14:27:29;8.00;99.90
25877;DHT22;13692;47.480;19.216;2023-04-07T14:29:56;7.90;99.90
25877;DHT22;13692;47.480;19.216;2023-04-07T14:32:26;7.80;99.90
25877;DHT22;13692;47.480;19.216;2023-04-07T14:34:55;7.80;99.90
25877;DHT22;13692;47.480;19.216;2023-04-07T14:37:24;7.90;99.90
25877;DHT22;13692;47.480;19.216;2023-04-07T14:39:52;7.90;99.90
25877;DHT22;13692;47.480;19.216;2023-04-07T14:42:28;8.00;99.90
25877;DHT22;13692;47.480;19.216;2023-04-07T14:44:56;8.00;99.90
25877;DHT22;13692;47.480;19.216;2023-04-07T14:47:25;8.00;99.90
25877;DHT22;13692;47.480;19.216;2023-04-07T14:49:53;7.90;99.90
25877;DHT22;13692;47.480;19.216;2023-04-07T14:52:21;7.90;99.90
25877;DHT22;13692;47.480;19.216;2023-04-07T14:54:48;7.90;99.90
25877;DHT22;13692;47.480;19.216;2023-04-07T14:57:15;7.90;99.90
25877;DHT22;13692;47.480;19.216;2023-04-07T14:59:42;7.90;99.90
25877;DHT22;13692;47.480;19.216;2023-04-07T15:02:09;7.90;99.90
25877;DHT22;13692;47.480;19.216;2023-04-07T15:04:37;7.90;99.90
25877;DHT22;13692;47.480;19.216;2023-04-07T15:07:04;7.80;99.90
25877;DHT22;13692;47.480;19.216;2023-04-07T15:09:31;7.80;99.90
25877;DHT22;13692;47.480;19.216;2023-04-07T15:11:58;7.80;99.90
25877;DHT22;13692;47.480;19.216;2023-04-07T15:14:26;7.80;99.90
25877;DHT22;13692;47.480;19.216;2023-04-07T15:16:53;7.80;99.90
25877;DHT22;13692;47.480;19.216;2023-04-07T15:19:20;7.80;99.90
25877;DHT22;13692;47.480;19.216;2023-04-07T15:21:47;7.60;99.90
25877;DHT22;13692;47.480;19.216;2023-04-07T15:24:14;7.60;99.90
25877;DHT22;13692;47.480;19.216;2023-04-07T15:26:42;7.50;99.90
25877;DHT22;13692;47.480;19.216;2023-04-07T15:29:09;7.50;99.90
25877;DHT22;13692;47.480;19.216;2023-04-07T15:31:36;7.50;99.90
25877;DHT22;13692;47.480;19.216;2023-04-07T15:34:03;7.60;99.90
25877;DHT22;13692;47.480;19.216;2023-04-07T15:36:30;7.60;99.90
25877;DHT22;13692;47.480;19.216;2023-04-07T15:39:02;7.60;99.90
25877;DHT22;13692;47.480;19.216;2023-04-07T15:41:30;7.50;99.90
25877;DHT22;13692;47.480;19.216;2023-04-07T15:44:01;7.50;99.90
25877;DHT22;13692;47.480;19.216;2023-04-07T15:46:29;7.40;99.90
25877;DHT22;13692;47.480;19.216;2023-04-07T15:48:58;7.40;99.90
25877;DHT22;13692;47.480;19.216;2023-04-07T15:51:25;7.50;99.90